createdAt,value
2023-03-27T05:46:03.545Z,1.30
2023-03-27T05:51:09.747Z,1.40
2023-03-27T05:56:15.125Z,1.90
2023-03-27T06:01:23.406Z,2.50
2023-03-27T06:06:29.005Z,3.10
2023-03-27T06:11:34.180Z,3.80
2023-03-27T06:16:42.097Z,4.60
2023-03-27T06:21:47.952Z,5.20
2023-03-27T06:26:53.968Z,5.60
2023-03-27T06:32:02.843Z,6.00
2023-03-27T06:37:08.334Z,6.20
2023-03-27T06:42:13.646Z,6.60
2023-03-27T06:47:22.069Z,8.90
2023-03-27T06:52:27.821Z,12.00
2023-03-27T06:57:33.106Z,13.00
2023-03-27T07:02:41.404Z,12.20
2023-03-27T17:47:16.136Z,6.00
2023-03-27T17:52:23.597Z,5.30
2023-03-27T17:57:29.808Z,5.20
2023-03-27T18:02:38.854Z,5.20
2023-03-27T18:07:44.745Z,5.30
2023-03-27T18:12:50.192Z,5.30
2023-03-27T18:17:58.147Z,5.20
2023-03-27T18:23:04.140Z,5.20
2023-03-27T18:28:09.502Z,5.10
2023-03-27T18:33:17.603Z,5.00
2023-03-27T18:38:23.202Z,4.90
2023-03-27T18:43:28.577Z,4.80
2023-03-27T18:48:36.798Z,4.80
2023-03-27T18:53:42.248Z,4.70
2023-03-27T18:58:47.598Z,4.60
2023-03-27T19:03:55.491Z,4.60
2023-03-27T19:09:01.033Z,4.50
2023-03-27T19:14:06.551Z,4.50
2023-03-27T19:19:14.785Z,4.50
2023-03-27T19:24:20.128Z,4.50
2023-03-27T19:29:25.965Z,4.40
2023-03-27T19:34:42.542Z,4.40
2023-03-27T19:39:48.525Z,4.30
2023-03-27T19:44:53.755Z,4.10
2023-03-27T19:50:02.010Z,3.80
2023-03-27T19:55:08.128Z,4.00
2023-03-27T20:00:15.960Z,3.90
2023-03-27T20:05:23.972Z,3.80
2023-03-27T20:10:29.484Z,3.70
2023-03-27T20:15:35.003Z,3.60
